Time;durP1;ratioP1;P1;durP2;ratioP2;P2;SDS_P1;SDS_P2;PMS_P1;PMS_P2;Temp;Humidity;BMP_temperature;BMP_pressure;BME280_temperature;BME280_humidity;BME280_pressure;Samples;Min_cycle;Max_cycle;Signal;HPM_P1;HPM_P2
2022/11/16 00:01:13;;;;;;;4.18;2.47;;;;;;;12.78;69.90;99764.00;5134239;27;20043;-66
2022/11/16 00:03:43;;;;;;;3.75;2.67;;;;;;;12.78;69.98;99769.41;5142244;27;20046;-66
2022/11/16 00:06:12;;;;;;;5.68;2.67;;;;;;;12.79;70.38;99778.28;5141953;27;20086;-66
2022/11/16 00:08:42;;;;;;;3.72;2.70;;;;;;;12.77;70.25;99769.66;5143076;27;20051;-65
2022/11/16 00:11:11;;;;;;;4.03;2.75;;;;;;;12.78;70.24;99772.09;5138964;27;20103;-66
2022/11/16 00:13:40;;;;;;;5.70;2.47;;;;;;;12.69;69.85;99754.78;5143386;27;20047;-66
2022/11/16 00:16:13;;;;;;;5.20;2.88;;;;;;;12.75;70.00;99764.53;5143374;27;20043;-66
2022/11/16 00:18:42;;;;;;;3.25;2.50;;;;;;;12.77;70.02;99772.34;5131393;27;20107;-66
2022/11/16 00:21:10;;;;;;;4.60;3.22;;;;;;;12.75;69.77;99775.31;5140792;27;20051;-66
2022/11/16 00:23:38;;;;;;;5.43;2.67;;;;;;;12.76;69.99;99782.31;5138434;27;20040;-66
2022/11/16 00:26:08;;;;;;;6.82;2.53;;;;;;;12.76;69.77;99784.22;5143290;27;20047;-66
2022/11/16 00:28:36;;;;;;;3.30;2.60;;;;;;;12.75;69.92;99783.41;5144255;27;20055;-67
2022/11/16 00:31:06;;;;;;;4.30;2.38;;;;;;;12.74;70.20;99781.78;5139758;27;20110;-66
2022/11/16 00:33:34;;;;;;;3.95;2.50;;;;;;;12.75;69.80;99778.00;5143467;27;20047;-66
2022/11/16 00:36:05;;;;;;;4.13;2.80;;;;;;;12.75;70.42;99769.09;5140325;27;20058;-66
2022/11/16 00:38:33;;;;;;;3.05;2.40;;;;;;;12.73;69.80;99761.28;5133183;27;20039;-66
2022/11/16 00:41:02;;;;;;;3.83;2.70;;;;;;;12.75;70.28;99766.41;5139483;27;20046;-66
2022/11/16 00:43:30;;;;;;;4.60;2.53;;;;;;;12.75;69.98;99742.16;5133931;27;20086;-66
2022/11/16 00:45:57;;;;;;;3.70;2.75;;;;;;;12.75;69.86;99734.88;5143288;27;20065;-66
2022/11/16 00:48:26;;;;;;;4.60;2.20;;;;;;;12.75;70.22;99734.06;5143619;27;20074;-66
2022/11/16 00:50:53;;;;;;;3.75;2.40;;;;;;;12.74;69.97;99771.00;5142036;28;20047;-65
2022/11/16 00:53:22;;;;;;;3.95;2.40;;;;;;;12.74;70.38;99771.00;5143559;28;20504;-66
2022/11/16 00:55:50;;;;;;;4.40;2.50;;;;;;;12.75;70.34;99772.63;5137238;28;20054;-66
2022/11/16 00:58:18;;;;;;;3.95;2.20;;;;;;;12.72;70.24;99762.34;5142271;28;20158;-66
2022/11/16 01:00:46;;;;;;;4.60;2.58;;;;;;;12.74;70.33;99754.00;5136303;27;20061;-65
2022/11/16 01:03:13;;;;;;;4.07;2.50;;;;;;;12.73;70.57;99755.09;5141235;28;20043;-66
2022/11/16 01:05:41;;;;;;;4.43;2.40;;;;;;;12.73;70.14;99749.69;5140101;27;20053;-66
2022/11/16 01:08:09;;;;;;;3.47;2.20;;;;;;;12.74;70.22;99762.09;5142925;27;20703;-66
2022/11/16 01:10:40;;;;;;;5.35;2.35;;;;;;;12.67;70.17;99744.28;5136354;28;20061;-66
2022/11/16 01:13:09;;;;;;;4.10;2.53;;;;;;;12.74;69.92;99727.84;5143301;28;20051;-66
2022/11/16 01:15:36;;;;;;;3.85;2.38;;;;;;;12.75;70.25;99740.25;5142916;27;20058;-67
2022/11/16 01:18:04;;;;;;;4.47;2.60;;;;;;;12.75;70.31;99742.97;5132421;28;20131;-66
2022/11/16 01:20:32;;;;;;;4.40;2.20;;;;;;;12.75;70.38;99737.56;5139972;28;20110;-66
2022/11/16 01:23:00;;;;;;;6.13;2.17;;;;;;;12.65;70.43;99714.06;5138405;27;20047;-66
2022/11/16 01:25:28;;;;;;;4.18;2.20;;;;;;;12.74;70.41;99722.47;5132768;28;20035;-66
2022/11/16 01:27:57;;;;;;;4.90;2.45;;;;;;;12.75;70.27;99734.88;5141092;28;20113;-65
2022/11/16 01:30:24;;;;;;;4.25;2.70;;;;;;;12.75;70.11;99731.38;5141578;28;20106;-66
2022/11/16 01:32:52;;;;;;;5.25;2.45;;;;;;;12.76;70.44;99725.72;5142900;27;20070;-66
2022/11/16 01:35:20;;;;;;;3.70;2.05;;;;;;;12.75;69.97;99726.78;5144369;27;20047;-66
2022/11/16 01:37:47;;;;;;;3.58;2.20;;;;;;;12.75;70.16;99721.38;5144143;27;20054;-66
2022/11/16 01:40:15;;;;;;;5.43;3.20;;;;;;;12.76;70.22;99717.63;5133347;27;20051;-66
2022/11/16 01:42:43;;;;;;;3.78;1.85;;;;;;;12.76;70.21;99725.72;5144705;27;20039;-67
2022/11/16 01:45:27;;;;;;;4.25;2.10;;;;;;;12.76;70.32;99719.50;5145482;27;20051;-67
2022/11/16 01:47:55;;;;;;;3.72;2.30;;;;;;;12.77;70.00;99723.81;5144621;27;20049;-66
2022/11/16 01:50:23;;;;;;;2.70;1.70;;;;;;;12.77;70.09;99726.53;5144711;27;20053;-67
2022/11/16 01:52:54;;;;;;;3.03;2.20;;;;;;;12.77;70.16;99727.34;5144870;27;20511;-67
2022/11/16 01:55:23;;;;;;;4.25;2.28;;;;;;;12.73;70.35;99714.63;5141953;27;20054;-67
2022/11/16 01:57:51;;;;;;;3.22;2.42;;;;;;;12.74;70.49;99719.78;5138438;27;20065;-67
2022/11/16 02:00:20;;;;;;;4.35;2.58;;;;;;;12.75;70.33;99721.38;5132247;27;20043;-67
2022/11/16 02:02:48;;;;;;;3.08;2.10;;;;;;;12.76;70.43;99723.00;5142372;27;20045;-67
2022/11/16 02:05:19;;;;;;;3.78;2.53;;;;;;;12.76;70.74;99706.03;5138358;27;20697;-66
2022/11/16 02:11:13;;;;;;;2.55;1.90;;;;;;;12.75;70.11;99705.22;5141940;27;20051;-67
2022/11/16 02:13:49;;;;;;;5.63;2.38;;;;;;;12.75;70.09;99707.09;5138564;27;20043;-67
2022/11/16 02:16:33;;;;;;;3.17;2.10;;;;;;;12.75;70.29;99701.72;5144364;27;20043;-67
2022/11/16 02:19:19;;;;;;;2.90;2.20;;;;;;;12.75;70.34;99705.22;5142423;27;20054;-66
2022/11/16 02:21:59;;;;;;;3.20;2.30;;;;;;;12.76;70.56;99706.03;5138065;27;20047;-66
2022/11/16 02:24:49;;;;;;;4.35;1.90;;;;;;;12.75;70.21;99705.22;5131866;27;20049;-66
2022/11/16 02:27:49;;;;;;;3.55;1.85;;;;;;;12.75;70.58;99693.63;5135459;27;20051;-67
2022/11/16 02:30:20;;;;;;;3.28;2.17;;;;;;;12.76;70.29;99692.53;5145476;27;20055;-67
2022/11/16 02:32:54;;;;;;;3.50;2.08;;;;;;;12.76;70.12;99698.75;5142996;27;20053;-66
2022/11/16 02:35:25;;;;;;;4.88;2.38;;;;;;;12.75;70.44;99688.22;5126119;28;20481;-67
2022/11/16 02:37:58;;;;;;;3.50;2.28;;;;;;;12.76;70.58;99706.03;5136747;27;20441;-65
2022/11/16 02:40:31;;;;;;;4.88;2.40;;;;;;;12.75;70.54;99699.81;5142536;27;20057;-66
2022/11/16 02:43:03;;;;;;;3.10;2.50;;;;;;;12.75;70.78;99696.31;5142401;27;20062;-66
2022/11/16 02:45:35;;;;;;;3.33;1.92;;;;;;;12.70;70.99;99691.72;5129400;27;20036;-66
2022/11/16 02:48:08;;;;;;;4.47;2.42;;;;;;;12.72;70.91;99703.03;5142288;27;20107;-67
2022/11/16 02:50:38;;;;;;;3.85;2.35;;;;;;;12.75;70.71;99715.19;5143994;27;20108;-66
2022/11/16 02:53:06;;;;;;;4.78;2.88;;;;;;;12.76;71.65;99714.13;5130699;27;20057;-66
2022/11/16 02:55:36;;;;;;;5.30;2.70;;;;;;;12.75;72.84;99713.31;5129021;27;20051;-66
2022/11/16 02:58:06;;;;;;;3.38;2.40;;;;;;;12.76;72.38;99714.94;5140231;27;20418;-67
2022/11/16 03:00:42;;;;;;;4.28;2.38;;;;;;;12.76;72.25;99714.13;5143734;27;20120;-67
2022/11/16 03:03:24;;;;;;;5.75;2.50;;;;;;;12.74;72.19;99716.25;5141553;27;20043;-67
2022/11/16 03:05:58;;;;;;;5.25;2.53;;;;;;;12.74;72.30;99714.38;5129407;27;20528;-67
2022/11/16 03:08:33;;;;;;;4.05;2.35;;;;;;;12.75;72.13;99718.69;5137110;27;20047;-67
2022/11/16 03:13:51;;;;;;;4.03;2.10;;;;;;;12.74;71.62;99725.16;5132445;27;20037;-67
2022/11/16 03:16:24;;;;;;;2.97;1.92;;;;;;;12.75;71.85;99734.88;5144936;27;20039;-67
2022/11/16 03:18:55;;;;;;;3.55;2.70;;;;;;;12.74;71.34;99730.56;5142964;27;20047;-66
2022/11/16 03:21:27;;;;;;;3.63;2.03;;;;;;;12.76;71.50;99735.69;5136856;27;20043;-67
2022/11/16 03:23:55;;;;;;;2.60;1.90;;;;;;;12.76;71.78;99741.06;5132044;27;20061;-67
2022/11/16 03:26:29;;;;;;;3.25;1.98;;;;;;;12.75;71.45;99745.66;5128933;27;20050;-67
2022/11/16 03:29:01;;;;;;;4.50;2.10;;;;;;;12.76;71.18;99741.06;5142879;27;20055;-67
2022/11/16 03:31:35;;;;;;;4.15;2.03;;;;;;;12.74;71.18;99749.44;5143060;27;20339;-67
2022/11/16 03:34:07;;;;;;;3.38;1.60;;;;;;;12.74;71.07;99749.44;5144934;27;20070;-66
2022/11/16 03:36:38;;;;;;;2.00;1.55;;;;;;;12.75;70.82;99742.97;5144782;27;20054;-66
2022/11/16 03:39:12;;;;;;;2.55;1.80;;;;;;;12.73;70.82;99739.72;5141102;27;20054;-67
2022/11/16 03:41:43;;;;;;;2.50;1.60;;;;;;;12.69;71.25;99742.13;5136456;27;20050;-66
2022/11/16 03:44:14;;;;;;;2.00;1.40;;;;;;;12.74;71.21;99751.31;5143087;27;20043;-66
2022/11/16 03:46:44;;;;;;;1.40;1.17;;;;;;;12.74;71.02;99748.63;5138870;27;20039;-66
2022/11/16 03:49:12;;;;;;;2.47;1.40;;;;;;;12.74;70.71;99760.22;5127992;27;20051;-66
2022/11/16 03:51:40;;;;;;;2.72;1.60;;;;;;;12.73;70.79;99765.88;5143457;27;20039;-66
2022/11/16 03:54:08;;;;;;;4.07;1.75;;;;;;;12.73;70.55;99765.88;5142613;27;20047;-67
2022/11/16 03:56:35;;;;;;;2.47;1.48;;;;;;;12.72;70.65;99773.13;5124411;28;20053;-66
2022/11/16 03:59:03;;;;;;;2.72;1.60;;;;;;;12.71;70.85;99776.91;5135543;27;20047;-66
2022/11/16 04:01:31;;;;;;;1.70;1.27;;;;;;;12.71;70.56;99776.91;5142510;27;20054;-66
2022/11/16 04:04:00;;;;;;;2.33;1.27;;;;;;;12.71;70.80;99776.91;5144090;27;20054;-66
2022/11/16 04:25:57;;;;;;;2.22;1.20;;;;;;;12.66;70.53;99774.19;5051639;28;20041;-66
2022/11/16 04:28:28;;;;;;;3.42;1.20;;;;;;;12.59;70.35;99763.63;5052053;28;20059;-66
2022/11/16 04:39:16;;;;;;;2.15;1.20;;;;;;;12.63;70.49;99796.28;5053313;28;20056;-66
2022/11/16 04:47:05;;;;;;;2.70;1.13;;;;;;;12.61;70.59;99796.53;5064773;28;20049;-66
2022/11/16 04:47:15;;;;;;;4.13;2.05;;;;;;;12.61;70.34;99798.41;5050010;28;20045;-65
2022/11/16 04:49:43;;;;;;;5.65;1.48;;;;;;;12.60;70.71;99800.31;5059371;28;20045;-66
2022/11/16 04:52:12;;;;;;;1.80;1.30;;;;;;;12.57;70.74;99790.03;5058019;28;20048;-65
2022/11/16 04:54:40;;;;;;;4.22;1.42;;;;;;;12.58;70.50;99802.44;5055034;28;20049;-66
2022/11/16 04:57:07;;;;;;;3.08;1.38;;;;;;;12.56;70.48;99801.09;5095945;28;20059;-66
2022/11/16 04:59:35;;;;;;;4.72;1.80;;;;;;;12.58;70.61;99812.41;5141105;28;20395;-67
2022/11/16 05:02:09;;;;;;;3.20;1.30;;;;;;;12.58;70.10;99815.13;5143042;28;20043;-67
2022/11/16 05:04:38;;;;;;;2.28;1.38;;;;;;;12.58;70.39;99817.81;5134694;28;20039;-66
2022/11/16 05:07:09;;;;;;;2.50;1.30;;;;;;;12.57;70.11;99816.19;5143170;27;20043;-68
2022/11/16 05:09:41;;;;;;;4.22;1.50;;;;;;;12.55;70.18;99810.25;5145339;27;20046;-67
2022/11/16 05:12:10;;;;;;;2.65;1.17;;;;;;;12.56;70.46;99804.59;5144456;27;20044;-66
2022/11/16 05:14:37;;;;;;;2.80;1.50;;;;;;;12.57;70.13;99805.41;5144515;27;20059;-65
2022/11/16 05:17:05;;;;;;;2.35;1.60;;;;;;;12.55;70.09;99808.34;5146512;27;20043;-66
2022/11/16 05:22:18;;;;;;;3.67;1.67;;;;;;;12.54;70.22;99806.72;5143414;27;20069;-66
2022/11/16 05:24:47;;;;;;;2.63;1.35;;;;;;;12.55;70.10;99807.53;5136958;27;20044;-66
2022/11/16 05:27:16;;;;;;;2.72;1.13;;;;;;;12.54;70.26;99805.91;5137130;27;20056;-66
2022/11/16 05:29:44;;;;;;;4.88;2.00;;;;;;;12.46;70.10;99790.25;5141593;27;20070;-67
2022/11/16 05:32:13;;;;;;;6.55;1.50;;;;;;;12.54;70.29;99795.13;5136643;27;20047;-66
2022/11/16 05:34:41;;;;;;;3.58;1.52;;;;;;;12.52;70.21;99790.00;5140076;27;20051;-66
2022/11/16 05:37:09;;;;;;;2.83;1.40;;;;;;;12.53;69.85;99804.31;5137139;27;20055;-68
2022/11/16 05:39:37;;;;;;;4.05;1.27;;;;;;;12.52;70.19;99799.97;5138910;27;20049;-66
2022/11/16 05:42:07;;;;;;;4.05;1.65;;;;;;;12.51;70.21;99801.88;5142046;27;20047;-65
2022/11/16 05:44:35;;;;;;;4.50;1.67;;;;;;;12.48;69.81;99810.47;5139695;27;20712;-66
2022/11/16 05:47:03;;;;;;;2.33;1.33;;;;;;;12.50;69.80;99815.59;5144729;27;20043;-66
2022/11/16 05:49:30;;;;;;;2.92;1.75;;;;;;;12.49;70.03;99816.66;5144218;27;20043;-66
2022/11/16 05:51:58;;;;;;;3.50;1.40;;;;;;;12.48;69.85;99831.22;5143760;27;20047;-66
2022/11/16 05:54:26;;;;;;;3.00;1.58;;;;;;;12.47;69.98;99829.59;5139457;27;20050;-66
2022/11/16 05:56:54;;;;;;;2.30;1.80;;;;;;;12.46;69.58;99825.28;5143967;27;20206;-66
2022/11/16 05:59:23;;;;;;;1.92;1.00;;;;;;;12.44;69.77;99836.31;5142183;27;20084;-65
2022/11/16 06:01:51;;;;;;;2.70;1.40;;;;;;;12.43;69.97;99833.88;5139903;27;20047;-66
2022/11/16 06:04:19;;;;;;;4.57;1.50;;;;;;;12.42;69.64;99832.25;5139603;27;20751;-65
2022/11/16 06:06:52;;;;;;;4.72;1.65;;;;;;;12.41;69.90;99834.13;5144883;27;20054;-66
2022/11/16 06:09:19;;;;;;;6.32;1.75;;;;;;;12.40;69.77;99837.91;5150778;27;20047;-66
2022/11/16 06:11:47;;;;;;;3.42;1.50;;;;;;;12.41;69.67;99836.00;5142831;27;20472;-66
2022/11/16 06:14:15;;;;;;;3.80;1.27;;;;;;;12.38;69.57;99832.75;5139730;27;20043;-67
2022/11/16 06:16:44;;;;;;;6.97;1.77;;;;;;;12.37;69.40;99835.72;5144691;27;20055;-67
2022/11/16 06:19:11;;;;;;;3.13;1.50;;;;;;;12.36;69.63;99837.59;5140412;27;20047;-66
2022/11/16 06:21:39;;;;;;;3.15;1.50;;;;;;;12.37;69.51;99841.09;5141455;27;21031;-66
2022/11/16 06:24:08;;;;;;;3.08;1.35;;;;;;;12.35;69.31;99849.44;5138935;27;20051;-67
2022/11/16 06:26:36;;;;;;;3.35;1.60;;;;;;;12.35;69.30;99859.41;5145746;27;20450;-66
2022/11/16 06:29:04;;;;;;;4.30;1.77;;;;;;;12.32;69.30;99849.97;5143409;28;20054;-64
2022/11/16 06:31:32;;;;;;;3.75;1.73;;;;;;;12.32;69.28;99857.22;5143351;28;20047;-66
2022/11/16 06:34:01;;;;;;;4.32;1.50;;;;;;;12.31;69.58;99859.13;5138569;28;20047;-65
2022/11/16 06:36:28;;;;;;;4.57;1.52;;;;;;;12.28;69.36;99864.19;5130155;28;20054;-63
2022/11/16 06:38:58;;;;;;;4.25;1.67;;;;;;;12.30;69.50;99862.06;5138586;28;20405;-65
2022/11/16 06:41:26;;;;;;;3.67;1.55;;;;;;;12.29;69.18;99868.53;5142227;28;20047;-64
2022/11/16 06:43:54;;;;;;;5.07;1.50;;;;;;;12.27;69.46;99866.09;5142561;28;20051;-64
2022/11/16 06:46:23;;;;;;;4.25;1.92;;;;;;;12.26;68.96;99864.47;5138937;28;20043;-65
2022/11/16 06:48:51;;;;;;;3.95;2.10;;;;;;;12.27;69.02;99870.66;5140536;27;20043;-61
2022/11/16 06:51:20;;;;;;;3.35;1.55;;;;;;;12.25;69.18;99883.56;4783629;28;10000046;-61
2022/11/16 06:53:47;;;;;;;5.32;1.85;;;;;;;12.23;69.19;99883.03;5133613;28;20043;-61
2022/11/16 06:56:16;;;;;;;4.10;1.60;;;;;;;12.22;68.91;99879.50;5123693;28;20647;-62
2022/11/16 06:58:43;;;;;;;2.33;1.40;;;;;;;12.22;69.03;99874.13;5139615;28;20055;-62
2022/11/16 07:01:11;;;;;;;8.48;1.90;;;;;;;12.20;69.01;99876.25;5138682;28;20070;-61
2022/11/16 07:03:40;;;;;;;4.70;1.70;;;;;;;12.21;69.31;99880.59;5133174;28;20528;-62
2022/11/16 07:06:09;;;;;;;6.35;1.70;;;;;;;12.19;69.10;99877.34;5140300;28;20063;-63
2022/11/16 07:08:38;;;;;;;4.90;1.73;;;;;;;12.20;68.87;99886.22;5139465;28;20043;-62
2022/11/16 07:11:07;;;;;;;4.95;1.88;;;;;;;12.20;68.81;99887.03;5131075;27;20063;-66
2022/11/16 07:13:36;;;;;;;4.70;2.10;;;;;;;12.19;68.82;99898.88;5126582;28;20043;-63
2022/11/16 07:16:05;;;;;;;7.60;3.08;;;;;;;12.17;69.10;99901.00;5135367;28;20043;-63
2022/11/16 07:18:33;;;;;;;7.30;2.17;;;;;;;12.15;69.19;99895.06;5140669;28;20126;-63
2022/11/16 07:21:06;;;;;;;7.13;1.83;;;;;;;12.17;68.76;99902.91;5123927;28;20106;-62
2022/11/16 07:23:34;;;;;;;4.35;1.92;;;;;;;12.14;69.07;99892.63;5140070;28;20055;-62
2022/11/16 07:26:05;;;;;;;6.07;2.25;;;;;;;12.16;68.90;99902.09;5134471;28;20047;-62
2022/11/16 07:28:33;;;;;;;4.47;1.90;;;;;;;12.15;68.78;99905.03;5104985;27;1083070;-62
2022/11/16 07:31:02;;;;;;;5.60;2.25;;;;;;;12.15;68.80;99913.13;5139947;27;20598;-63
2022/11/16 07:33:30;;;;;;;4.30;1.80;;;;;;;12.11;69.34;99906.63;5141370;27;20213;-64
2022/11/16 07:36:00;;;;;;;6.18;2.25;;;;;;;12.16;69.02;99912.03;4779219;27;10000919;-62
2022/11/16 07:38:28;;;;;;;4.45;2.28;;;;;;;12.16;68.78;99909.34;5131081;27;20298;-62
2022/11/16 07:40:59;;;;;;;3.55;1.70;;;;;;;12.17;68.65;99917.19;5141064;27;20089;-62
2022/11/16 07:43:30;;;;;;;4.70;2.00;;;;;;;12.15;68.86;99915.81;5143462;27;20055;-61
2022/11/16 07:46:02;;;;;;;3.40;1.88;;;;;;;12.16;68.91;99915.56;5140433;27;20050;-62
2022/11/16 07:48:50;;;;;;;2.75;1.38;;;;;;;12.16;68.58;99918.25;5135878;27;20050;-63
2022/11/16 07:51:19;;;;;;;6.38;1.67;;;;;;;12.15;68.56;99926.59;5135498;27;20044;-62
2022/11/16 07:53:47;;;;;;;6.63;1.85;;;;;;;12.13;68.71;99928.75;5131434;27;20046;-62
2022/11/16 07:56:15;;;;;;;5.78;2.00;;;;;;;12.13;68.29;99932.25;5135120;27;20528;-62
2022/11/16 07:58:44;;;;;;;6.00;2.25;;;;;;;12.13;68.61;99928.75;5140739;27;20050;-62
2022/11/16 08:01:14;;;;;;;5.55;1.70;;;;;;;12.10;68.36;99932.75;5134195;27;20055;-61
2022/11/16 08:03:43;;;;;;;4.35;1.73;;;;;;;12.09;68.71;99931.13;5139535;27;20051;-61
2022/11/16 08:06:14;;;;;;;5.32;2.83;;;;;;;12.10;68.37;99943.53;5138080;27;20706;-61
2022/11/16 08:08:42;;;;;;;5.60;1.63;;;;;;;12.10;68.63;99937.34;5127194;27;20067;-61
2022/11/16 08:11:11;;;;;;;3.65;1.77;;;;;;;12.09;68.50;99941.91;5140144;27;20141;-62
2022/11/16 08:13:41;;;;;;;4.72;1.88;;;;;;;12.09;68.34;99939.22;5125446;27;20497;-62
2022/11/16 08:16:13;;;;;;;7.93;2.00;;;;;;;12.10;68.23;99938.16;5136008;27;20559;-63
2022/11/16 08:18:41;;;;;;;6.88;1.70;;;;;;;12.09;68.16;99933.81;5127890;27;20047;-62
2022/11/16 08:21:11;;;;;;;7.10;1.75;;;;;;;12.10;68.56;99945.41;5140083;27;20055;-63
2022/11/16 08:23:39;;;;;;;4.43;1.50;;;;;;;12.10;68.26;99940.84;5134625;27;20050;-62
2022/11/16 08:26:09;;;;;;;7.05;2.00;;;;;;;12.09;68.36;99941.09;5139311;27;20118;-63
2022/11/16 08:28:37;;;;;;;3.90;1.60;;;;;;;12.09;68.38;99941.91;5143089;27;20051;-61
2022/11/16 08:31:10;;;;;;;5.03;1.60;;;;;;;12.09;68.38;99941.91;5139189;27;20050;-62
2022/11/16 08:33:38;;;;;;;4.38;1.50;;;;;;;12.08;68.23;99937.59;5142649;27;20039;-62
2022/11/16 08:36:07;;;;;;;5.05;1.88;;;;;;;12.09;68.46;99941.09;5136219;27;20057;-62
2022/11/16 08:38:40;;;;;;;4.88;1.60;;;;;;;12.10;68.20;99938.16;5126667;27;20049;-62
2022/11/16 08:41:08;;;;;;;4.65;1.55;;;;;;;12.11;67.96;99933.56;5142839;27;20042;-62
2022/11/16 08:43:38;;;;;;;2.67;1.38;;;;;;;12.12;68.62;99938.72;5138606;27;20043;-63
2022/11/16 08:46:06;;;;;;;3.88;1.52;;;;;;;12.15;67.97;99937.34;5135734;27;20078;-63
2022/11/16 08:48:36;;;;;;;6.15;1.60;;;;;;;12.14;67.98;99933.03;5134984;27;20442;-63
2022/11/16 08:51:05;;;;;;;7.68;2.40;;;;;;;12.13;67.83;99944.91;5135340;27;20043;-63
2022/11/16 08:53:49;;;;;;;7.45;2.05;;;;;;;12.11;68.16;99945.16;5140575;27;20047;-63
2022/11/16 08:56:18;;;;;;;6.05;1.52;;;;;;;12.12;68.09;99951.38;5139340;27;20055;-63
2022/11/16 08:58:46;;;;;;;6.47;1.85;;;;;;;12.11;68.22;99950.53;5144032;28;20039;-63
2022/11/16 09:01:20;;;;;;;5.78;1.73;;;;;;;12.12;68.08;99944.09;5139048;28;20051;-63
2022/11/16 09:03:50;;;;;;;7.68;1.60;;;;;;;12.13;68.27;99948.41;4783134;27;10000561;-63
2022/11/16 09:06:17;;;;;;;8.77;2.17;;;;;;;12.12;67.99;99946.78;5139060;28;20054;-62
2022/11/16 09:08:46;;;;;;;4.63;1.50;;;;;;;12.12;68.20;99952.19;5135863;28;20051;-62
2022/11/16 09:11:16;;;;;;;3.58;1.23;;;;;;;12.13;68.55;99955.69;5133992;27;20043;-62
2022/11/16 09:13:44;;;;;;;8.98;2.17;;;;;;;12.13;68.00;99953.81;5138320;28;20438;-61
2022/11/16 09:16:15;;;;;;;4.95;1.50;;;;;;;12.17;68.55;99959.47;5137950;28;20066;-62
2022/11/16 09:18:44;;;;;;;8.65;2.05;;;;;;;12.16;68.51;99955.97;5134230;28;20043;-62
2022/11/16 09:21:17;;;;;;;6.70;2.35;;;;;;;12.16;68.46;99955.97;5143191;27;20045;-62
2022/11/16 09:23:46;;;;;;;8.82;2.00;;;;;;;12.18;68.66;99953.00;5132775;27;20062;-62
2022/11/16 09:26:15;;;;;;;5.47;1.98;;;;;;;12.18;68.47;99963.78;5136142;28;20051;-62
2022/11/16 09:28:43;;;;;;;8.00;1.75;;;;;;;12.16;68.45;99958.66;5138685;28;20074;-62
2022/11/16 09:31:10;;;;;;;6.15;1.77;;;;;;;12.18;68.70;99953.81;5133432;28;20051;-62
2022/11/16 09:33:38;;;;;;;6.55;2.20;;;;;;;12.18;68.73;99963.78;5140929;27;20043;-62
2022/11/16 09:36:08;;;;;;;10.35;1.63;;;;;;;12.17;68.64;99964.84;5129361;28;20051;-63
2022/11/16 09:38:41;;;;;;;8.80;2.40;;;;;;;12.20;68.93;99959.78;5137789;28;20111;-62
2022/11/16 09:41:43;;;;;;;6.18;1.73;;;;;;;12.22;69.26;99960.31;5134519;28;20473;-61
2022/11/16 09:44:27;;;;;;;5.72;1.42;;;;;;;12.22;68.56;99960.31;5131106;28;20047;-61
2022/11/16 09:46:57;;;;;;;7.55;1.90;;;;;;;12.22;69.03;99960.31;5127819;28;20051;-63
2022/11/16 09:49:28;;;;;;;5.15;1.55;;;;;;;12.22;68.90;99962.22;5131706;28;20047;-61
2022/11/16 09:52:02;;;;;;;6.30;2.22;;;;;;;12.24;68.67;99966.28;5138348;28;20506;-62
2022/11/16 09:54:35;;;;;;;5.50;1.45;;;;;;;12.32;69.89;99963.13;5137152;27;20051;-61
2022/11/16 09:57:06;;;;;;;7.53;1.80;;;;;;;12.32;69.18;99965.81;5141892;27;20062;-62
2022/11/16 09:59:42;;;;;;;4.38;1.40;;;;;;;12.40;69.63;99967.25;5143097;27;20051;-62
2022/11/16 10:02:20;;;;;;;3.63;1.60;;;;;;;12.36;68.79;99968.81;5141025;27;20460;-62
2022/11/16 10:04:53;;;;;;;7.40;1.50;;;;;;;12.36;69.25;99963.44;5138910;27;20126;-62
2022/11/16 10:07:31;;;;;;;7.90;2.30;;;;;;;12.37;69.00;99967.75;5143063;27;20051;-61
2022/11/16 10:10:00;;;;;;;9.40;2.13;;;;;;;12.37;68.99;99971.25;5140287;27;20054;-61
2022/11/16 10:12:35;;;;;;;8.60;1.92;;;;;;;12.39;69.09;99974.50;5144272;27;20053;-62
2022/11/16 10:15:34;;;;;;;9.60;2.40;;;;;;;12.39;69.05;99971.00;5139465;27;20054;-63
2022/11/16 10:18:14;;;;;;;5.22;1.42;;;;;;;12.38;69.31;99962.09;5145645;27;20047;-65
2022/11/16 10:21:07;;;;;;;8.43;1.88;;;;;;;12.41;69.15;99968.06;5130656;27;20043;-65
2022/11/16 10:23:48;;;;;;;8.05;1.75;;;;;;;12.43;69.41;99969.44;5137727;27;20158;-65
2022/11/16 10:26:27;;;;;;;6.55;1.25;;;;;;;12.42;69.15;99961.59;5132285;27;20058;-64
2022/11/16 10:29:14;;;;;;;4.88;1.77;;;;;;;12.41;69.71;99963.47;5146034;27;20061;-64
2022/11/16 10:31:55;;;;;;;7.28;1.70;;;;;;;12.43;69.32;99955.94;5137621;27;20046;-64
2022/11/16 10:34:26;;;;;;;9.70;2.15;;;;;;;12.42;69.13;99972.38;5144320;27;20054;-64
2022/11/16 10:37:02;;;;;;;7.80;2.30;;;;;;;12.51;69.49;99965.44;5141456;27;20147;-64
2022/11/16 10:39:32;;;;;;;5.85;1.48;;;;;;;12.51;69.88;99968.16;5142750;27;20065;-64
2022/11/16 10:42:05;;;;;;;4.95;1.80;;;;;;;12.54;69.23;99968.44;5146209;27;20074;-64
2022/11/16 10:44:40;;;;;;;5.13;1.50;;;;;;;12.65;69.18;99974.75;5145906;27;20043;-64
2022/11/16 10:47:15;;;;;;;7.20;1.50;;;;;;;12.64;69.22;99963.16;5140045;27;20397;-64
2022/11/16 10:49:50;;;;;;;11.68;2.30;;;;;;;12.61;69.13;99965.53;5145734;27;20042;-64
2022/11/16 10:52:18;;;;;;;8.82;1.80;;;;;;;12.57;69.21;99965.25;5140463;27;20051;-63
2022/11/16 10:54:45;;;;;;;7.07;1.55;;;;;;;12.57;69.73;99967.13;5143723;27;20146;-63
2022/11/16 10:57:15;;;;;;;3.40;1.52;;;;;;;12.59;69.27;99960.41;5137470;27;20039;-63
2022/11/16 10:59:44;;;;;;;7.80;1.55;;;;;;;12.59;69.61;99951.50;5138530;27;20115;-63
2022/11/16 11:02:27;;;;;;;3.80;1.52;;;;;;;12.62;69.28;99959.06;5144452;27;20491;-64
2022/11/16 11:05:05;;;;;;;5.60;1.42;;;;;;;12.67;69.50;99951.84;5129642;27;20111;-63
2022/11/16 11:07:36;;;;;;;5.97;1.70;;;;;;;12.64;69.20;99951.53;5143335;27;20039;-61
2022/11/16 11:10:05;;;;;;;5.75;1.48;;;;;;;12.68;69.43;99941.88;5135512;27;20066;-63
2022/11/16 11:12:36;;;;;;;6.13;1.35;;;;;;;12.66;69.62;99941.31;5139915;27;20043;-65
2022/11/16 11:15:20;;;;;;;9.05;1.73;;;;;;;12.64;69.33;99946.97;5142220;27;20040;-64
2022/11/16 11:18:19;;;;;;;2.53;1.30;;;;;;;12.76;70.15;99952.19;5141245;27;20102;-66
2022/11/16 11:20:49;;;;;;;5.43;1.70;;;;;;;12.70;68.97;99950.53;5135098;27;20054;-64
2022/11/16 11:23:19;;;;;;;7.30;1.50;;;;;;;12.68;69.80;99948.09;5140368;27;20119;-63
2022/11/16 11:25:53;;;;;;;5.03;1.55;;;;;;;12.69;69.17;99951.59;5136933;27;20048;-63
2022/11/16 11:28:25;;;;;;;7.03;1.40;;;;;;;12.68;69.19;99949.97;5140532;27;20050;-63
2022/11/16 11:30:57;;;;;;;6.78;2.00;;;;;;;12.69;69.81;99944.31;5137742;27;20071;-62
2022/11/16 11:33:27;;;;;;;5.38;1.80;;;;;;;12.71;69.81;99931.38;5143931;27;20051;-63
2022/11/16 11:36:04;;;;;;;8.15;1.70;;;;;;;12.72;69.09;99937.59;5143245;27;20523;-63
2022/11/16 11:38:33;;;;;;;5.20;2.13;;;;;;;12.74;69.55;99931.94;5134894;27;20078;-63
2022/11/16 11:41:04;;;;;;;5.68;2.03;;;;;;;12.73;69.08;99933.00;5144987;27;20057;-64
2022/11/16 11:43:33;;;;;;;4.00;1.73;;;;;;;12.79;69.20;99927.41;5142874;27;20054;-63
2022/11/16 11:46:11;;;;;;;5.60;1.42;;;;;;;12.76;69.37;99925.22;5139383;27;20104;-62
2022/11/16 11:48:47;;;;;;;5.35;1.40;;;;;;;12.74;69.04;99921.97;5140309;27;20126;-62
2022/11/16 11:51:23;;;;;;;6.65;1.55;;;;;;;12.74;69.27;99913.88;5150976;27;20501;-63
2022/11/16 11:53:58;;;;;;;6.40;1.35;;;;;;;12.73;68.82;99904.16;4956236;27;10001166;-63
2022/11/16 11:56:29;;;;;;;6.03;1.75;;;;;;;12.76;69.04;99902.84;5138600;27;20256;-63
2022/11/16 11:58:58;;;;;;;4.43;1.73;;;;;;;12.78;69.10;99906.09;5133767;27;20140;-63
2022/11/16 12:01:54;;;;;;;5.20;1.70;;;;;;;12.77;69.23;99902.59;5135751;27;20050;-63
2022/11/16 12:04:47;;;;;;;4.70;1.20;;;;;;;12.77;68.91;99901.78;5127565;27;20043;-63
2022/11/16 12:07:27;;;;;;;5.43;1.55;;;;;;;12.78;69.24;99896.13;5128209;27;20067;-63
2022/11/16 12:10:03;;;;;;;6.63;1.45;;;;;;;12.77;69.09;99889.09;5139836;27;20057;-63
2022/11/16 12:12:43;;;;;;;5.40;1.20;;;;;;;12.77;69.35;99886.41;5135971;27;20118;-63
2022/11/16 12:15:29;;;;;;;8.48;1.58;;;;;;;12.76;69.24;99875.88;5131787;27;20056;-63
2022/11/16 12:18:06;;;;;;;5.13;1.45;;;;;;;12.74;69.21;99872.63;5133422;27;20069;-63
2022/11/16 12:20:43;;;;;;;5.53;1.95;;;;;;;12.78;68.92;99873.72;5138604;27;20045;-63
2022/11/16 12:23:31;;;;;;;5.88;1.38;;;;;;;12.79;69.46;99872.66;5131601;27;20106;-63
2022/11/16 12:26:07;;;;;;;7.20;1.75;;;;;;;12.81;68.96;99873.22;5133555;27;20043;-64
2022/11/16 12:28:48;;;;;;;7.90;1.52;;;;;;;12.92;69.14;99866.81;5139529;27;20061;-63
2022/11/16 12:31:49;;;;;;;4.22;1.95;;;;;;;12.89;68.45;99876.22;5128731;27;20043;-64
2022/11/16 12:34:28;;;;;;;6.10;1.50;;;;;;;12.88;68.85;99869.22;5137043;27;20053;-64